Aviation Digital Data Service (ADDS)

Output produced by METARs form (1551 UTC 28 February 2015)
found at http://aviationweather.gov/adds/metars/
 
KJAX 281142Z 2812/0112 02012G21KT P6SM -RA SCT015 OVC025 WS015/05035KT 
     FM281500 02015G25KT 5SM -RA BR SCT008 BKN015 OVC025 
     TEMPO 2815/2819 3SM RA BR BKN008 OVC015 
     FM010000 01010G15KT 5SM -RA BR SCT004 BKN007 OVC015 
     FM010600 04007KT 5SM -DZ BR OVC004